createdAt,value
2018-12-13T00:01:50.135Z,102778.36
2018-12-13T00:04:54.339Z,102777.84
2018-12-13T00:07:58.591Z,102777.50
2018-12-13T00:11:02.843Z,102775.27
2018-12-13T00:14:07.048Z,102771.12
2018-12-13T00:17:11.328Z,102762.24
2018-12-13T00:20:15.592Z,102762.78
2018-12-13T00:23:19.819Z,102761.30
2018-12-13T00:26:24.144Z,102756.38
2018-12-13T00:29:28.413Z,102752.41
2018-12-13T00:32:32.652Z,102762.22
2018-12-13T00:35:36.855Z,102761.25
2018-12-13T00:38:41.063Z,102762.03
2018-12-13T00:41:45.395Z,102762.97
2018-12-13T00:44:49.714Z,102768.03
2018-12-13T00:47:53.935Z,102764.05
2018-12-13T00:50:58.167Z,102770.39
2018-12-13T00:54:02.383Z,102778.38
2018-12-13T00:57:06.591Z,102774.70
2018-12-13T01:00:10.928Z,102779.38
2018-12-13T01:03:15.197Z,102778.59
2018-12-13T01:06:19.483Z,102772.52
2018-12-13T01:09:23.695Z,102779.00
2018-12-13T01:12:28.012Z,102779.46
2018-12-13T01:15:34.374Z,102783.15
2018-12-13T01:18:38.626Z,102783.90
2018-12-13T01:21:42.861Z,102793.31
2018-12-13T01:24:47.095Z,102789.81
2018-12-13T01:27:51.314Z,102786.25
2018-12-13T01:30:55.548Z,102785.56
2018-12-13T01:33:59.767Z,102782.16
2018-12-13T01:37:04.076Z,102774.36
2018-12-13T01:40:08.544Z,102781.86
2018-12-13T01:43:12.904Z,102778.44
2018-12-13T01:46:17.227Z,102778.44
2018-12-13T01:49:21.473Z,102777.31
2018-12-13T01:52:25.775Z,102767.63
2018-12-13T01:55:29.979Z,102765.87
2018-12-13T01:58:34.231Z,102772.11
2018-12-13T02:01:38.616Z,102765.14
2018-12-13T02:04:42.920Z,102766.00
2018-12-13T02:07:47.214Z,102764.53
2018-12-13T02:10:51.495Z,102758.53
2018-12-13T02:13:55.724Z,102759.63
2018-12-13T02:16:59.939Z,102754.50
2018-12-13T02:20:04.678Z,102758.55
2018-12-13T02:23:08.969Z,102751.88
2018-12-13T02:26:13.207Z,102755.52
2018-12-13T02:29:17.426Z,102752.70
2018-12-13T02:32:21.687Z,102747.39
2018-12-13T02:35:26.076Z,102748.48
2018-12-13T02:38:30.325Z,102744.98
2018-12-13T02:41:34.673Z,102744.50
2018-12-13T02:44:38.900Z,102744.28
2018-12-13T02:47:43.147Z,102734.55
2018-12-13T02:50:47.440Z,102734.76
2018-12-13T02:53:51.744Z,102739.67
2018-12-13T02:56:55.964Z,102741.53
2018-12-13T03:00:00.236Z,102736.50
2018-12-13T03:03:04.572Z,102735.81
2018-12-13T03:06:08.775Z,102735.59
2018-12-13T03:09:13.071Z,102738.37
2018-12-13T03:12:17.439Z,102736.20
2018-12-13T03:15:21.801Z,102734.13
2018-12-13T03:18:26.023Z,102730.45
2018-12-13T03:21:30.334Z,102731.05
2018-12-13T03:24:34.622Z,102733.14
2018-12-13T03:27:38.848Z,102733.53
2018-12-13T03:30:43.077Z,102733.66
2018-12-13T03:33:47.355Z,102726.81
2018-12-13T03:36:51.579Z,102719.97
2018-12-13T03:39:55.795Z,102720.23
2018-12-13T03:43:00.039Z,102718.80
2018-12-13T03:46:04.425Z,102710.22
2018-12-13T03:49:08.672Z,102709.13
2018-12-13T03:52:13.004Z,102701.67
2018-12-13T03:55:17.227Z,102706.84
2018-12-13T03:58:21.572Z,102701.99
2018-12-13T04:01:25.905Z,102699.62
2018-12-13T04:04:30.271Z,102699.23
2018-12-13T04:07:34.579Z,102699.14
2018-12-13T04:10:38.872Z,102694.98
2018-12-13T04:13:43.116Z,102699.14
2018-12-13T04:16:47.426Z,102698.55
2018-12-13T04:19:51.806Z,102698.67
2018-12-13T04:22:56.100Z,102693.59
2018-12-13T04:26:00.363Z,102702.52
2018-12-13T04:29:04.746Z,102697.76
2018-12-13T04:32:08.998Z,102695.71
2018-12-13T04:35:13.365Z,102696.80
2018-12-13T04:38:23.630Z,102687.75
2018-12-13T04:41:28.119Z,102688.14
2018-12-13T04:44:32.439Z,102687.44
2018-12-13T04:47:36.705Z,102684.14
2018-12-13T04:50:40.943Z,102680.64
2018-12-13T04:53:45.296Z,102690.63
2018-12-13T04:56:49.522Z,102690.25
2018-12-13T04:59:53.766Z,102682.71
2018-12-13T05:02:58.078Z,102680.25
2018-12-13T05:06:02.331Z,102673.80
2018-12-13T05:09:08.856Z,102673.83
2018-12-13T05:12:13.171Z,102675.91
2018-12-13T05:15:17.468Z,102674.20
2018-12-13T05:18:21.688Z,102674.84
2018-12-13T05:21:26.031Z,102673.38
2018-12-13T05:24:30.387Z,102665.45
2018-12-13T05:27:34.724Z,102659.60
2018-12-13T05:30:39.068Z,102651.55
2018-12-13T05:33:43.304Z,102638.75
2018-12-13T05:36:47.547Z,102630.22
2018-12-13T05:39:51.758Z,102629.48
2018-12-13T05:42:56.048Z,102627.53
2018-12-13T05:46:00.367Z,102633.67
2018-12-13T05:49:04.697Z,102641.20
2018-12-13T05:52:08.892Z,102645.48
2018-12-13T05:55:13.276Z,102642.22
2018-12-13T05:58:17.585Z,102638.66
2018-12-13T06:01:21.830Z,102645.62
2018-12-13T06:04:26.160Z,102651.97
2018-12-13T06:07:30.439Z,102648.44
2018-12-13T06:10:34.703Z,102648.56
2018-12-13T06:13:38.948Z,102654.66
2018-12-13T06:16:43.208Z,102655.64
2018-12-13T06:19:47.432Z,102654.89
2018-12-13T06:22:51.668Z,102644.88
2018-12-13T06:25:55.891Z,102659.77
2018-12-13T06:29:00.239Z,102663.79
2018-12-13T06:32:04.617Z,102660.86
2018-12-13T06:35:09.063Z,102650.36
2018-12-13T06:38:13.397Z,102646.84
2018-12-13T06:41:17.753Z,102646.84
2018-12-13T06:44:22.013Z,102639.66
2018-12-13T06:47:26.335Z,102636.97
2018-12-13T06:50:30.548Z,102638.20
2018-12-13T06:53:34.778Z,102636.85
2018-12-13T06:56:39.082Z,102637.43
2018-12-13T06:59:43.444Z,102633.28
2018-12-13T07:02:47.681Z,102631.36
2018-12-13T07:05:52.003Z,102620.37
2018-12-13T07:08:56.238Z,102621.24
2018-12-13T07:12:00.486Z,102622.69
2018-12-13T07:15:05.083Z,102620.37
2018-12-13T07:18:09.340Z,102625.39
2018-12-13T07:21:13.657Z,102623.64
2018-12-13T07:24:17.983Z,102625.84
2018-12-13T07:27:22.299Z,102627.06
2018-12-13T07:30:26.502Z,102624.38
2018-12-13T07:33:30.759Z,102624.47
2018-12-13T07:36:35.004Z,102626.07
2018-12-13T07:39:39.299Z,102622.55
2018-12-13T07:42:44.736Z,102629.27
2018-12-13T07:45:52.929Z,102621.80
2018-12-13T07:49:16.289Z,102618.63
2018-12-13T07:52:20.739Z,102626.68
2018-12-13T07:55:25.368Z,102624.73
2018-12-13T07:58:29.643Z,102613.52
2018-12-13T08:01:33.901Z,102624.47
2018-12-13T08:04:38.251Z,102620.45
2018-12-13T08:07:42.448Z,102619.75
2018-12-13T08:10:46.799Z,102616.33
2018-12-13T08:13:51.247Z,102620.10
2018-12-13T08:16:55.482Z,102618.63
2018-12-13T08:19:59.783Z,102613.49
2018-12-13T08:23:04.148Z,102618.63
2018-12-13T08:26:08.387Z,102622.53
2018-12-13T08:29:13.155Z,102622.14
2018-12-13T08:32:17.452Z,102624.34
2018-12-13T08:35:21.865Z,102623.10
2018-12-13T08:38:27.387Z,102618.34
2018-12-13T08:41:31.790Z,102615.27
2018-12-13T08:44:36.016Z,102620.64
2018-12-13T08:47:40.238Z,102620.64
2018-12-13T08:50:44.452Z,102619.43
2018-12-13T08:53:48.702Z,102621.03
2018-12-13T08:56:53.033Z,102616.87
2018-12-13T08:59:57.343Z,102618.21
2018-12-13T09:03:01.859Z,102619.69
2018-12-13T09:06:06.098Z,102624.58
2018-12-13T09:09:18.895Z,102613.63
2018-12-13T09:12:45.341Z,102612.63
2018-12-13T09:15:51.677Z,102614.58
2018-12-13T09:18:56.018Z,102611.50
2018-12-13T09:22:00.509Z,102613.28
2018-12-13T09:25:05.237Z,102616.70
2018-12-13T09:28:09.456Z,102613.76
2018-12-13T09:31:13.715Z,102607.27
2018-12-13T09:34:18.004Z,102611.03
2018-12-13T09:37:22.216Z,102610.42
2018-12-13T09:40:26.427Z,102613.45
2018-12-13T09:43:30.723Z,102615.05
2018-12-13T09:46:34.946Z,102615.14
2018-12-13T09:49:39.685Z,102615.05
2018-12-13T09:52:43.936Z,102619.91
2018-12-13T09:55:48.142Z,102611.11
2018-12-13T09:58:52.362Z,102610.32
2018-12-13T10:02:00.145Z,102604.09
2018-12-13T10:05:04.597Z,102589.32
2018-12-13T10:08:08.807Z,102592.34
2018-12-13T10:11:13.107Z,102591.33
2018-12-13T10:14:17.315Z,102599.52
2018-12-13T10:17:21.551Z,102592.19
2018-12-13T10:20:25.819Z,102595.34
2018-12-13T10:23:30.056Z,102596.55
2018-12-13T10:26:34.280Z,102596.69
2018-12-13T10:29:38.586Z,102600.86
2018-12-13T10:32:43.050Z,102596.75
2018-12-13T10:35:47.338Z,102593.48
2018-12-13T10:38:53.143Z,102597.30
2018-12-13T10:41:57.886Z,102600.50
2018-12-13T10:45:02.316Z,102596.48
2018-12-13T10:48:06.590Z,102600.47
2018-12-13T10:51:10.967Z,102592.91
2018-12-13T10:54:15.316Z,102592.07
2018-12-13T10:57:19.671Z,102583.30
2018-12-13T11:00:29.290Z,102588.05
2018-12-13T11:03:36.721Z,102579.44
2018-12-13T11:06:41.015Z,102572.86
2018-12-13T11:09:45.245Z,102573.59
2018-12-13T11:12:49.531Z,102571.21
2018-12-13T11:15:53.746Z,102567.19
2018-12-13T11:18:57.946Z,102569.52
2018-12-13T11:22:02.324Z,102562.08
2018-12-13T11:25:06.687Z,102566.88
2018-12-13T11:28:27.928Z,102559.69
2018-12-13T11:31:32.167Z,102559.95
2018-12-13T11:34:36.423Z,102556.53
2018-12-13T11:37:40.627Z,102558.86
2018-12-13T11:40:44.955Z,102551.33
2018-12-13T11:43:49.187Z,102547.66
2018-12-13T11:46:53.412Z,102539.13
2018-12-13T11:49:57.699Z,102538.14
2018-12-13T11:53:01.942Z,102537.16
2018-12-13T11:56:06.267Z,102530.92
2018-12-13T11:59:10.467Z,102535.69
2018-12-13T12:02:14.767Z,102531.28
2018-12-13T12:05:19.211Z,102530.41
2018-12-13T12:08:23.464Z,102533.14
2018-12-13T12:11:27.861Z,102520.89
2018-12-13T12:14:32.145Z,102522.58
2018-12-13T12:17:36.529Z,102530.83
2018-12-13T12:20:40.887Z,102527.88
2018-12-13T12:23:45.176Z,102520.64
2018-12-13T12:26:49.551Z,102523.73
2018-12-13T12:29:53.807Z,102516.94
2018-12-13T12:32:58.108Z,102514.47
2018-12-13T12:36:02.390Z,102508.81
2018-12-13T12:39:08.537Z,102504.86
2018-12-13T12:42:12.835Z,102500.64
2018-12-13T12:45:17.183Z,102493.06
2018-12-13T12:48:21.402Z,102498.14
2018-12-13T12:51:25.790Z,102495.33
2018-12-13T12:54:30.240Z,102489.62
2018-12-13T12:57:34.583Z,102499.62
2018-12-13T13:00:38.812Z,102494.84
2018-12-13T13:03:43.103Z,102492.81
2018-12-13T13:06:47.397Z,102489.58
2018-12-13T13:09:51.675Z,102489.97
2018-12-13T13:12:55.911Z,102488.38
2018-12-13T13:16:00.162Z,102491.89
2018-12-13T13:19:04.477Z,102492.41
2018-12-13T13:22:08.767Z,102485.77
2018-12-13T13:25:13.081Z,102488.31
2018-12-13T13:28:17.335Z,102492.34
2018-12-13T13:31:21.608Z,102486.97
2018-12-13T13:34:25.931Z,102481.59
2018-12-13T13:37:30.242Z,102486.69
2018-12-13T13:40:34.500Z,102489.11
2018-12-13T13:43:38.731Z,102487.79
2018-12-13T13:46:42.977Z,102495.06
2018-12-13T13:49:47.220Z,102499.57
2018-12-13T13:52:51.565Z,102504.53
2018-12-13T13:55:55.860Z,102503.78
2018-12-13T13:59:00.182Z,102509.09
2018-12-13T14:02:04.536Z,102510.97
2018-12-13T14:05:08.926Z,102514.80
2018-12-13T14:08:13.179Z,102510.83
2018-12-13T14:11:17.503Z,102506.22
2018-12-13T14:14:21.751Z,102506.86
2018-12-13T14:17:26.103Z,102505.27
2018-12-13T14:20:30.766Z,102509.29
2018-12-13T14:23:35.172Z,102508.77
2018-12-13T14:26:39.502Z,102512.05
2018-12-13T14:29:43.793Z,102508.88
2018-12-13T14:32:48.100Z,102506.28
2018-12-13T14:35:52.358Z,102508.00
2018-12-13T14:38:56.674Z,102504.94
2018-12-13T14:42:00.904Z,102503.12
2018-12-13T14:45:06.226Z,102500.44
2018-12-13T14:48:10.466Z,102498.91
2018-12-13T14:51:14.707Z,102493.73
2018-12-13T14:54:19.013Z,102499.78
2018-12-13T14:57:23.325Z,102494.28
2018-12-13T15:00:27.731Z,102496.45
2018-12-13T15:03:31.969Z,102496.19
2018-12-13T15:06:36.302Z,102500.42
2018-12-13T15:09:40.692Z,102496.19
2018-12-13T15:12:44.969Z,102499.84
2018-12-13T15:15:49.288Z,102501.23
2018-12-13T15:18:54.007Z,102494.41
2018-12-13T15:21:58.283Z,102494.20
2018-12-13T15:25:02.531Z,102497.34
2018-12-13T15:28:06.787Z,102489.82
2018-12-13T15:31:11.028Z,102485.66
2018-12-13T15:34:15.275Z,102487.30
2018-12-13T15:37:19.555Z,102492.43
2018-12-13T15:40:23.934Z,102493.91
2018-12-13T15:43:28.174Z,102487.22
2018-12-13T15:46:32.441Z,102484.94
2018-12-13T15:49:36.953Z,102489.44
2018-12-13T15:52:41.254Z,102486.63
2018-12-13T15:55:45.595Z,102484.86
2018-12-13T15:58:49.827Z,102482.17
2018-12-13T16:01:54.323Z,102480.96
2018-12-13T16:04:58.640Z,102480.56
2018-12-13T16:08:02.917Z,102485.53
2018-12-13T16:11:07.160Z,102483.67
2018-12-13T16:14:11.392Z,102473.17
2018-12-13T16:17:15.652Z,102476.55
2018-12-13T16:20:19.871Z,102479.23
2018-12-13T16:23:24.124Z,102475.32
2018-12-13T16:26:28.419Z,102484.51
2018-12-13T16:29:32.801Z,102482.92
2018-12-13T16:32:37.071Z,102490.97
2018-12-13T16:35:41.285Z,102490.11
2018-12-13T16:38:45.507Z,102487.54
2018-12-13T16:41:49.724Z,102501.45
2018-12-13T16:44:56.316Z,102503.65
2018-12-13T16:48:00.528Z,102503.30
2018-12-13T16:51:04.815Z,102502.58
2018-12-13T16:54:09.012Z,102497.09
2018-12-13T16:57:13.236Z,102502.44
2018-12-13T17:00:17.495Z,102506.01
2018-12-13T17:03:40.417Z,102508.91
2018-12-13T17:06:44.699Z,102510.78
2018-12-13T17:09:48.866Z,102506.41
2018-12-13T17:12:53.079Z,102508.56
2018-12-13T17:15:57.359Z,102510.17
2018-12-13T17:19:01.703Z,102505.07
2018-12-13T17:22:06.002Z,102508.88
2018-12-13T17:25:10.450Z,102502.17
2018-12-13T17:28:14.682Z,102507.16
2018-12-13T17:31:18.902Z,102507.21
2018-12-13T17:34:23.143Z,102515.66
2018-12-13T17:37:27.347Z,102514.06
2018-12-13T17:40:31.664Z,102505.53
2018-12-13T17:43:35.904Z,102507.36
2018-12-13T17:46:40.089Z,102511.52
2018-12-13T17:49:44.337Z,102510.82
2018-12-13T17:52:48.558Z,102508.37
2018-12-13T17:55:52.783Z,102514.25
2018-12-13T17:58:57.095Z,102516.69
2018-12-13T18:02:01.285Z,102513.87
2018-12-13T18:05:05.944Z,102519.97
2018-12-13T18:08:10.239Z,102512.30
2018-12-13T18:11:14.609Z,102516.05
2018-12-13T18:14:18.831Z,102514.58
2018-12-13T18:17:23.121Z,102514.06
2018-12-13T18:20:27.366Z,102514.80
2018-12-13T18:23:31.721Z,102517.70
2018-12-13T18:26:36.034Z,102514.66
2018-12-13T18:29:40.350Z,102519.04
2018-12-13T18:32:44.697Z,102523.92
2018-12-13T18:35:48.947Z,102524.14
2018-12-13T18:38:53.416Z,102530.02
2018-12-13T18:41:57.651Z,102526.83
2018-12-13T18:45:02.001Z,102536.34
2018-12-13T18:48:07.094Z,102537.70
2018-12-13T18:51:11.376Z,102538.08
2018-12-13T18:54:15.725Z,102537.20
2018-12-13T18:57:19.947Z,102545.13
2018-12-13T19:00:24.255Z,102538.89
2018-12-13T19:03:28.551Z,102540.10
2018-12-13T19:06:32.856Z,102538.14
2018-12-13T19:09:37.124Z,102538.28
2018-12-13T19:12:41.343Z,102536.67
2018-12-13T19:15:45.579Z,102540.56
2018-12-13T19:18:49.840Z,102534.68
2018-12-13T19:21:54.151Z,102533.91
2018-12-13T19:24:58.578Z,102535.87
2018-12-13T19:28:02.987Z,102534.00
2018-12-13T19:31:07.239Z,102532.30
2018-12-13T19:34:11.447Z,102533.00
2018-12-13T19:37:15.690Z,102529.62
2018-12-13T19:40:19.926Z,102530.17
2018-12-13T19:43:24.146Z,102533.59
2018-12-13T19:46:28.376Z,102527.88
2018-12-13T19:49:32.709Z,102534.34
2018-12-13T19:52:37.008Z,102530.10
2018-12-13T19:55:41.235Z,102536.20
2018-12-13T19:58:45.484Z,102539.23
2018-12-13T20:01:49.719Z,102533.70
2018-12-13T20:04:54.407Z,102537.06
2018-12-13T20:07:58.671Z,102533.52
2018-12-13T20:11:02.927Z,102532.52
2018-12-13T20:14:07.237Z,102541.30
2018-12-13T20:17:11.447Z,102546.08
2018-12-13T20:20:15.759Z,102547.94
2018-12-13T20:23:19.973Z,102556.94
2018-12-13T20:26:24.350Z,102547.48
2018-12-13T20:29:28.718Z,102555.21
2018-12-13T20:32:33.255Z,102558.97
2018-12-13T20:35:37.542Z,102556.20
2018-12-13T20:38:41.803Z,102559.75
2018-12-13T20:41:46.142Z,102559.37
2018-12-13T20:44:50.350Z,102556.20
2018-12-13T20:47:54.599Z,102557.28
2018-12-13T20:50:58.806Z,102555.53
2018-12-13T20:54:03.056Z,102559.83
2018-12-13T20:57:07.314Z,102560.83
2018-12-13T21:00:12.483Z,102558.97
2018-12-13T21:03:16.815Z,102557.15
2018-12-13T21:06:21.051Z,102563.59
2018-12-13T21:09:25.287Z,102566.07
2018-12-13T21:12:29.532Z,102569.34
2018-12-13T21:15:34.022Z,102568.56
2018-12-13T21:18:38.322Z,102569.29
2018-12-13T21:21:43.416Z,102574.53
2018-12-13T21:24:47.811Z,102571.09
2018-12-13T21:27:52.067Z,102571.30
2018-12-13T21:30:56.331Z,102564.96
2018-12-13T21:34:00.639Z,102564.38
2018-12-13T21:37:04.967Z,102562.44
2018-12-13T21:40:09.455Z,102561.71
2018-12-13T21:43:13.750Z,102553.89
2018-12-13T21:46:17.996Z,102550.83
2018-12-13T21:49:22.227Z,102556.72
2018-12-13T21:52:26.611Z,102563.57
2018-12-13T21:55:31.012Z,102556.45
2018-12-13T21:58:35.236Z,102551.91
2018-12-13T22:01:39.655Z,102555.80
2018-12-13T22:04:44.076Z,102560.48
2018-12-13T22:07:48.394Z,102560.94
2018-12-13T22:10:52.643Z,102549.00
2018-12-13T22:13:56.875Z,102556.67
2018-12-13T22:17:01.094Z,102553.39
2018-12-13T22:20:06.434Z,102555.00
2018-12-13T22:23:10.688Z,102555.75
2018-12-13T22:26:14.980Z,102553.06
2018-12-13T22:29:19.284Z,102554.06
2018-12-13T22:32:23.487Z,102549.57
2018-12-13T22:35:27.857Z,102547.75
2018-12-13T22:38:32.047Z,102556.02
2018-12-13T22:41:36.431Z,102551.03
2018-12-13T22:44:40.642Z,102555.88
2018-12-13T22:47:45.094Z,102555.19
2018-12-13T22:50:49.362Z,102557.28
2018-12-13T22:53:54.319Z,102555.69
2018-12-13T22:56:58.595Z,102566.22
2018-12-13T23:00:02.904Z,102564.80
2018-12-13T23:03:07.334Z,102563.31
2018-12-13T23:06:11.708Z,102566.22
2018-12-13T23:09:16.035Z,102563.27
2018-12-13T23:12:20.335Z,102569.03
2018-12-13T23:15:24.717Z,102566.50
2018-12-13T23:18:28.993Z,102576.81
2018-12-13T23:21:33.299Z,102575.55
2018-12-13T23:24:37.548Z,102574.26
2018-12-13T23:27:41.826Z,102575.48
2018-12-13T23:30:46.217Z,102575.61
2018-12-13T23:33:50.443Z,102578.56
2018-12-13T23:36:54.887Z,102581.63
2018-12-13T23:39:59.103Z,102580.77
2018-12-13T23:43:03.337Z,102582.11
2018-12-13T23:46:07.667Z,102579.03
2018-12-13T23:49:11.898Z,102576.21
2018-12-13T23:52:16.171Z,102582.27
2018-12-13T23:55:20.515Z,102577.89
2018-12-13T23:58:24.851Z,102575.81
